This is the latest recevied weather packets stored in our database for station/object IV3CGM-13. If no packets are shown the sender has not sent any weather packets the latest 10 day(s).
| Time | Temp. | Humidity | Pressure | Rain* | Wind** | Luminosity | Snow |
|---|---|---|---|---|---|---|---|
| 1777135832 | 18.89° C | 50% | 1013.6 hPa | 0 mm | - | 59 W/m² | - |
| 1777135144 | 20° C | 46% | 1013.6 hPa | 0 mm | - | 94 W/m² | - |
| 1777134457 | 20.56° C | 42% | 1013.6 hPa | 0 mm | - | 121 W/m² | - |
| 1777133720 | 21.11° C | 41% | 1013.6 hPa | 0 mm | - | 147 W/m² | - |
| 1777133007 | 21.67° C | 36% | 1013.6 hPa | 0 mm | - | 180 W/m² | - |
| 1777132319 | 21.67° C | 37% | 1013.6 hPa | 0 mm | - | 209 W/m² | - |
| 1777131632 | 21.67° C | 38% | 1013.7 hPa | 0 mm | - | 244 W/m² | - |
| 1777130945 | 21.67° C | 37% | 1013.6 hPa | 0 mm | - | 282 W/m² | - |
| 1777130257 | 21.67° C | 38% | 1013.7 hPa | 0 mm | - | 319 W/m² | - |
| 1777129569 | 22.22° C | 38% | 1013.7 hPa | 0 mm | - | 351 W/m² | - |
| 1777128883 | 22.22° C | 40% | 1013.6 hPa | 0 mm | - | 394 W/m² | - |
| 1777128182 | 22.22° C | 39% | 1013.7 hPa | 0 mm | - | 433 W/m² | - |
| 1777127495 | 22.22° C | 41% | 1013.8 hPa | 0 mm | - | 474 W/m² | - |
| 1777126807 | 22.22° C | 39% | 1013.8 hPa | 0 mm | - | 510 W/m² | - |
| 1777126119 | 22.22° C | 40% | 1013.9 hPa | 0 mm | - | 536 W/m² | - |
| 1777125383 | 21.67° C | 42% | 1013.9 hPa | 0 mm | - | 575 W/m² | - |
| 1777124682 | 21.67° C | 39% | 1014 hPa | 0 mm | - | 610 W/m² | - |
| 1777123995 | 22.22° C | 39% | 1014 hPa | 0 mm | - | 642 W/m² | - |
| 1777123307 | 21.67° C | 38% | 1014.1 hPa | 0 mm | - | 658 W/m² | - |
| 1777122594 | 21.11° C | 42% | 1014.3 hPa | 0 mm | - | 687 W/m² | - |
| 1777121858 | 21.67° C | 41% | 1014.4 hPa | 0 mm | - | 701 W/m² | - |
| 1777121157 | 21.67° C | 40% | 1014.4 hPa | 0 mm | - | 733 W/m² | - |
| 1777120470 | 21.67° C | 41% | 1014.6 hPa | 0 mm | - | 750 W/m² | - |
| 1777119782 | 21.67° C | 42% | 1014.5 hPa | 0 mm | - | 762 W/m² | - |
| 1777119082 | 21.11° C | 44% | 1014.6 hPa | 0 mm | - | 770 W/m² | - |
* Rain latest hour (hover to see other rain measurements)
** Current wind speed in m/s (hover to see current wind gust speed)